Time;durP1;ratioP1;P1;durP2;ratioP2;P2;SDS_P1;SDS_P2;PMS_P1;PMS_P2;Temp;Humidity;BMP_temperature;BMP_pressure;BME280_temperature;BME280_humidity;BME280_pressure;Samples;Min_cycle;Max_cycle;Signal;HPM_P1;HPM_P2
2021/01/29 00:01:07;;;;;;;1.50;1.40;;;10.40;99.90;;;;;;4977365;28;20194;-92
2021/01/29 00:03:33;;;;;;;2.27;1.60;;;10.40;99.90;;;;;;4977321;28;20193;-91
2021/01/29 00:06:04;;;;;;;1.50;1.40;;;10.30;99.90;;;;;;4995631;28;20220;-91
2021/01/29 00:08:31;;;;;;;1.70;1.33;;;10.30;99.90;;;;;;4991029;28;20210;-92
2021/01/29 00:10:57;;;;;;;1.50;1.40;;;10.30;99.90;;;;;;5003661;28;20186;-91
2021/01/29 00:13:25;;;;;;;2.57;1.53;;;10.40;99.90;;;;;;5003660;28;20183;-92
2021/01/29 00:15:51;;;;;;;2.43;1.60;;;10.50;99.90;;;;;;5004579;28;20206;-91
2021/01/29 00:18:18;;;;;;;1.60;1.50;;;10.40;99.90;;;;;;5004304;28;20237;-92
2021/01/29 00:20:44;;;;;;;1.97;1.40;;;10.30;99.90;;;;;;5004803;28;20186;-92
2021/01/29 00:23:11;;;;;;;3.00;1.53;;;10.30;99.90;;;;;;5005481;28;20186;-92
2021/01/29 00:25:41;;;;;;;2.40;1.50;;;10.40;99.90;;;;;;5003895;28;20364;-91
2021/01/29 00:28:07;;;;;;;1.50;1.40;;;10.40;99.90;;;;;;5004585;28;20277;-91
2021/01/29 00:30:34;;;;;;;3.97;1.80;;;10.40;99.90;;;;;;5005735;28;20238;-92
2021/01/29 00:33:02;;;;;;;4.33;2.03;;;10.50;99.90;;;;;;5003947;28;20198;-92
2021/01/29 00:35:31;;;;;;;3.20;1.60;;;10.30;99.90;;;;;;5004123;28;20210;-92
2021/01/29 00:38:00;;;;;;;5.13;1.70;;;10.30;99.90;;;;;;5002112;28;20182;-92
2021/01/29 00:40:30;;;;;;;1.80;1.60;;;10.20;99.90;;;;;;5002735;28;20213;-92
2021/01/29 00:42:56;;;;;;;1.77;1.53;;;10.20;99.90;;;;;;5003706;28;20191;-92
2021/01/29 00:45:26;;;;;;;2.87;1.77;;;10.30;99.90;;;;;;5004265;28;20234;-92
2021/01/29 00:47:55;;;;;;;1.87;1.77;;;10.40;99.90;;;;;;5003567;28;20240;-92
2021/01/29 00:50:22;;;;;;;1.73;1.63;;;10.30;99.90;;;;;;5004685;28;20233;-92
2021/01/29 00:52:50;;;;;;;2.20;2.00;;;10.20;99.90;;;;;;5004290;28;20174;-92
2021/01/29 00:55:18;;;;;;;2.40;1.93;;;10.10;99.90;;;;;;4989696;28;20234;-92
2021/01/29 00:57:44;;;;;;;2.40;1.70;;;10.10;99.90;;;;;;5004849;28;20182;-92
2021/01/29 01:00:12;;;;;;;2.33;1.90;;;10.00;99.90;;;;;;5004135;28;20198;-92
2021/01/29 01:02:38;;;;;;;1.80;1.70;;;10.00;99.90;;;;;;5005599;28;20796;-92
2021/01/29 01:05:04;;;;;;;2.23;2.00;;;10.00;99.90;;;;;;5004815;28;20221;-91
2021/01/29 01:07:30;;;;;;;2.13;1.93;;;10.00;99.90;;;;;;5004249;28;20186;-91
2021/01/29 01:09:57;;;;;;;1.87;1.70;;;10.00;99.90;;;;;;4987534;28;20193;-91
2021/01/29 01:12:23;;;;;;;2.20;2.00;;;10.10;99.90;;;;;;5004748;28;20189;-91
2021/01/29 01:14:49;;;;;;;1.60;1.50;;;10.10;99.90;;;;;;5005474;28;20198;-92
2021/01/29 01:17:16;;;;;;;2.10;1.63;;;10.10;99.90;;;;;;5004960;28;20185;-92
2021/01/29 01:19:42;;;;;;;2.67;1.80;;;10.10;99.90;;;;;;5000909;28;20274;-92
2021/01/29 01:22:08;;;;;;;2.40;1.60;;;10.20;99.90;;;;;;4984576;28;20201;-91
2021/01/29 01:24:39;;;;;;;3.43;1.67;;;10.10;99.90;;;;;;4984242;28;20249;-92
2021/01/29 01:27:07;;;;;;;1.77;1.67;;;10.10;99.90;;;;;;4998063;28;20179;-91
2021/01/29 01:29:33;;;;;;;2.00;1.70;;;10.10;99.90;;;;;;5004003;28;20278;-90
2021/01/29 01:31:59;;;;;;;2.17;1.77;;;10.10;99.90;;;;;;5003746;28;20178;-91
2021/01/29 01:34:25;;;;;;;1.70;1.60;;;10.10;99.90;;;;;;5005055;28;20574;-91
2021/01/29 01:36:50;;;;;;;1.90;1.57;;;10.00;99.90;;;;;;5002932;28;20200;-91
2021/01/29 01:39:16;;;;;;;1.70;1.60;;;10.00;99.90;;;;;;5005322;28;20191;-91
2021/01/29 01:41:42;;;;;;;1.60;1.50;;;10.10;99.90;;;;;;5011428;28;20183;-90
2021/01/29 01:44:33;;;;;;;1.60;1.50;;;10.10;99.90;;;;;;5011876;28;20198;-90
2021/01/29 01:47:04;;;;;;;1.73;1.63;;;10.20;99.90;;;;;;5006328;28;20186;-91
2021/01/29 01:49:31;;;;;;;2.10;1.80;;;10.10;99.90;;;;;;5010981;28;20182;-91
2021/01/29 01:52:09;;;;;;;1.70;1.60;;;10.10;99.90;;;;;;5004684;28;20179;-90
2021/01/29 01:54:47;;;;;;;1.70;1.60;;;10.10;99.90;;;;;;5002661;28;20230;-90
2021/01/29 01:57:16;;;;;;;1.70;1.60;;;10.10;99.90;;;;;;5004768;28;20189;-90
2021/01/29 01:59:47;;;;;;;1.80;1.70;;;10.00;99.90;;;;;;5005050;28;20277;-90
2021/01/29 02:02:16;;;;;;;1.60;1.50;;;10.10;99.90;;;;;;5004192;28;20181;-91
2021/01/29 02:04:44;;;;;;;1.60;1.50;;;10.20;99.90;;;;;;5003989;28;20199;-91
2021/01/29 02:07:42;;;;;;;1.73;1.63;;;10.20;99.90;;;;;;5003792;28;20201;-90
2021/01/29 02:10:09;;;;;;;1.80;1.70;;;10.20;99.90;;;;;;5003647;28;20252;-90
2021/01/29 02:12:34;;;;;;;1.93;1.73;;;10.20;99.90;;;;;;5003507;28;20705;-90
2021/01/29 02:15:00;;;;;;;1.97;1.50;;;10.20;99.90;;;;;;5001749;28;20206;-90
2021/01/29 02:17:50;;;;;;;1.80;1.70;;;10.20;99.90;;;;;;5002897;28;20201;-90
2021/01/29 02:20:25;;;;;;;1.67;1.57;;;10.20;99.90;;;;;;5003846;28;20608;-90
2021/01/29 02:23:33;;;;;;;1.73;1.60;;;10.20;99.90;;;;;;5003529;28;20182;-90
2021/01/29 02:26:20;;;;;;;1.60;1.50;;;10.30;99.90;;;;;;4991317;28;20312;-90
2021/01/29 02:29:20;;;;;;;1.70;1.60;;;10.40;99.90;;;;;;5003737;28;20257;-90
2021/01/29 02:32:24;;;;;;;2.17;1.57;;;10.40;99.90;;;;;;5012070;28;20193;-90
2021/01/29 02:35:25;;;;;;;1.53;1.43;;;10.40;99.90;;;;;;4989016;28;20289;-90
2021/01/29 02:38:18;;;;;;;1.70;1.60;;;10.30;99.90;;;;;;5001983;28;20181;-90
2021/01/29 02:41:07;;;;;;;1.67;1.57;;;10.40;99.90;;;;;;5003583;28;20189;-90
2021/01/29 02:43:43;;;;;;;1.60;1.50;;;10.40;99.90;;;;;;5001164;28;20184;-91
2021/01/29 02:46:18;;;;;;;1.50;1.40;;;10.50;99.90;;;;;;5002607;28;20210;-90
2021/01/29 02:49:09;;;;;;;1.40;1.30;;;10.50;99.90;;;;;;5002585;28;20274;-90
2021/01/29 02:51:53;;;;;;;1.73;1.30;;;10.50;99.90;;;;;;5002957;28;20185;-90
2021/01/29 02:54:52;;;;;;;1.63;1.53;;;10.50;99.90;;;;;;5002505;28;20198;-90
2021/01/29 02:57:40;;;;;;;1.23;1.23;;;10.50;99.90;;;;;;5002050;28;20209;-90
2021/01/29 03:00:26;;;;;;;2.23;1.57;;;10.50;99.90;;;;;;5001859;28;20170;-91
2021/01/29 03:03:17;;;;;;;1.30;1.20;;;10.50;99.90;;;;;;5002611;28;20197;-90
2021/01/29 03:05:57;;;;;;;1.27;1.20;;;10.50;99.90;;;;;;5002025;28;20574;-91
2021/01/29 03:08:25;;;;;;;1.30;1.20;;;10.60;99.90;;;;;;5002404;28;20178;-90
2021/01/29 03:11:25;;;;;;;2.77;1.40;;;10.50;99.90;;;;;;5000622;28;20178;-91
2021/01/29 03:14:09;;;;;;;1.30;1.30;;;10.50;99.90;;;;;;5001990;28;20174;-91
2021/01/29 03:16:47;;;;;;;1.40;1.30;;;10.60;99.90;;;;;;5001408;28;20178;-91
2021/01/29 03:19:22;;;;;;;1.30;1.20;;;10.60;99.90;;;;;;5001653;28;20186;-91
2021/01/29 03:21:54;;;;;;;2.03;1.30;;;10.60;99.90;;;;;;5001676;28;20186;-91
2021/01/29 03:24:34;;;;;;;1.40;1.37;;;10.50;99.90;;;;;;5009380;28;20678;-91
2021/01/29 03:27:05;;;;;;;1.50;1.40;;;10.50;99.90;;;;;;5002242;28;20166;-91
2021/01/29 03:29:38;;;;;;;1.37;1.30;;;10.50;99.90;;;;;;5003359;28;20179;-91
2021/01/29 03:32:09;;;;;;;1.33;1.27;;;10.50;99.90;;;;;;5001916;28;20173;-91
2021/01/29 03:34:59;;;;;;;1.50;1.40;;;10.40;99.90;;;;;;5001585;28;20213;-91
2021/01/29 03:37:59;;;;;;;1.50;1.40;;;10.30;99.90;;;;;;5001471;28;20201;-91
2021/01/29 03:40:25;;;;;;;1.30;1.20;;;10.30;99.90;;;;;;5002991;28;20635;-92
2021/01/29 03:43:04;;;;;;;1.30;1.20;;;10.20;99.90;;;;;;5001284;28;20260;-91
2021/01/29 03:45:39;;;;;;;1.20;1.10;;;10.20;99.90;;;;;;5000920;28;20268;-91
2021/01/29 03:48:26;;;;;;;1.57;1.30;;;10.20;99.90;;;;;;5002950;28;20297;-91
2021/01/29 03:51:01;;;;;;;1.10;1.10;;;10.20;99.90;;;;;;5001293;28;20251;-91
2021/01/29 03:53:57;;;;;;;1.43;1.30;;;10.10;99.90;;;;;;5004852;28;20591;-90
2021/01/29 03:56:53;;;;;;;1.10;1.10;;;10.10;99.90;;;;;;5000140;28;20263;-91
2021/01/29 03:59:25;;;;;;;1.27;1.17;;;10.10;99.90;;;;;;4983239;28;20267;-91
2021/01/29 04:01:53;;;;;;;1.23;1.13;;;10.00;99.90;;;;;;4983114;28;20179;-91
2021/01/29 04:04:27;;;;;;;1.20;1.20;;;10.00;99.90;;;;;;4982728;28;20675;-91
2021/01/29 04:07:06;;;;;;;3.03;1.33;;;10.10;99.90;;;;;;4983992;28;20175;-91
2021/01/29 04:09:50;;;;;;;1.50;1.40;;;10.00;99.90;;;;;;4982637;28;20183;-91
2021/01/29 04:12:26;;;;;;;2.00;1.30;;;10.00;99.90;;;;;;4999705;28;20190;-90
2021/01/29 04:15:01;;;;;;;1.30;1.30;;;10.00;99.90;;;;;;5007340;28;20212;-91
2021/01/29 04:17:32;;;;;;;1.70;1.50;;;10.00;99.90;;;;;;5008380;28;20228;-91
2021/01/29 04:20:11;;;;;;;2.00;1.37;;;10.00;99.90;;;;;;5007382;28;20197;-91
2021/01/29 04:22:39;;;;;;;1.17;1.10;;;10.00;99.90;;;;;;5006054;28;20189;-91
2021/01/29 04:25:27;;;;;;;1.10;1.10;;;10.10;99.90;;;;;;5006550;28;20222;-91
2021/01/29 04:28:02;;;;;;;1.17;1.13;;;10.10;99.90;;;;;;4987664;28;20222;-91
2021/01/29 04:30:31;;;;;;;1.23;1.23;;;10.10;99.90;;;;;;4988910;28;20182;-91
2021/01/29 04:33:11;;;;;;;1.13;1.10;;;10.10;99.90;;;;;;4988250;28;20253;-91
2021/01/29 04:35:39;;;;;;;1.10;1.10;;;10.10;99.90;;;;;;4988663;28;20203;-91
2021/01/29 04:38:13;;;;;;;1.17;1.17;;;10.10;99.90;;;;;;5004596;28;20252;-92
2021/01/29 04:41:00;;;;;;;1.07;1.07;;;10.20;99.90;;;;;;5006676;28;20217;-91
2021/01/29 04:43:56;;;;;;;1.30;1.20;;;10.10;99.90;;;;;;5007389;28;20645;-91
2021/01/29 04:47:02;;;;;;;1.20;1.10;;;10.10;99.90;;;;;;5006578;28;20225;-91
2021/01/29 04:49:50;;;;;;;1.30;1.13;;;10.20;99.90;;;;;;5007475;28;20202;-91
2021/01/29 04:52:24;;;;;;;1.07;1.00;;;10.20;99.90;;;;;;5008002;28;20169;-91
2021/01/29 04:55:08;;;;;;;1.10;1.10;;;10.10;99.90;;;;;;5006879;28;20236;-91
2021/01/29 04:57:55;;;;;;;1.00;1.00;;;10.10;99.90;;;;;;5008284;28;20208;-91
2021/01/29 05:00:47;;;;;;;0.97;0.97;;;10.10;99.90;;;;;;5009304;28;20261;-91
2021/01/29 05:03:22;;;;;;;1.70;1.10;;;10.20;99.90;;;;;;5009503;28;20182;-94
2021/01/29 05:06:12;;;;;;;2.23;1.00;;;10.10;99.90;;;;;;5007308;28;20709;-91
2021/01/29 05:09:20;;;;;;;1.00;1.00;;;10.10;99.90;;;;;;5006186;28;20198;-91
2021/01/29 05:12:21;;;;;;;0.93;0.93;;;10.10;99.90;;;;;;5006256;28;20535;-90
2021/01/29 05:15:14;;;;;;;1.13;1.10;;;10.10;99.90;;;;;;5004779;28;20223;-90
2021/01/29 05:18:05;;;;;;;1.17;1.07;;;10.10;99.90;;;;;;5006884;28;20186;-91
2021/01/29 05:20:31;;;;;;;1.33;1.00;;;10.10;99.90;;;;;;5006867;28;20174;-90
2021/01/29 05:23:33;;;;;;;1.10;1.10;;;10.20;99.90;;;;;;5004062;28;20276;-91
2021/01/29 05:26:20;;;;;;;1.10;1.00;;;10.10;99.90;;;;;;5008864;28;20197;-91
2021/01/29 05:29:07;;;;;;;1.17;1.13;;;10.20;99.90;;;;;;5007814;28;20170;-92
2021/01/29 05:32:25;;;;;;;1.50;1.00;;;10.20;99.90;;;;;;5006839;28;20217;-91
2021/01/29 05:34:59;;;;;;;0.90;0.90;;;10.20;99.90;;;;;;5007570;28;20214;-92
2021/01/29 05:37:54;;;;;;;1.13;1.03;;;10.10;99.90;;;;;;5009018;28;20189;-92
2021/01/29 05:40:42;;;;;;;2.80;1.40;;;10.20;99.90;;;;;;4999918;28;20214;-92
2021/01/29 05:43:36;;;;;;;3.77;1.67;;;10.10;99.90;;;;;;5008210;28;20173;-91
2021/01/29 05:46:24;;;;;;;1.30;1.20;;;10.10;99.90;;;;;;5005467;28;20268;-90
2021/01/29 05:48:58;;;;;;;1.50;1.30;;;10.10;99.90;;;;;;5006417;28;20249;-90
2021/01/29 05:52:01;;;;;;;1.10;1.10;;;10.10;99.90;;;;;;5005164;28;20171;-89
2021/01/29 05:54:38;;;;;;;1.00;0.90;;;10.20;99.90;;;;;;5005387;28;20221;-90
2021/01/29 05:57:25;;;;;;;1.00;1.00;;;10.30;99.90;;;;;;5006877;28;20209;-90
2021/01/29 06:00:03;;;;;;;1.03;1.03;;;10.30;99.90;;;;;;5006400;28;20177;-93
2021/01/29 06:02:37;;;;;;;1.00;1.00;;;10.40;99.90;;;;;;5002786;28;20181;-91
2021/01/29 06:05:33;;;;;;;1.20;1.10;;;10.40;99.90;;;;;;4990492;28;20249;-91
2021/01/29 06:08:28;;;;;;;1.20;1.13;;;10.30;99.90;;;;;;5002396;28;20543;-91
2021/01/29 06:11:16;;;;;;;0.90;0.90;;;10.30;99.90;;;;;;5006925;28;20202;-92
2021/01/29 06:14:02;;;;;;;1.47;1.47;;;10.20;99.90;;;;;;5000191;28;20178;-92
2021/01/29 06:17:22;;;;;;;0.97;0.97;;;10.20;99.90;;;;;;4998083;28;20179;-92
2021/01/29 06:20:30;;;;;;;1.03;1.00;;;10.20;99.90;;;;;;4989199;28;20182;-91
2021/01/29 06:23:08;;;;;;;1.10;1.00;;;10.10;99.90;;;;;;5001106;28;20225;-92
2021/01/29 06:25:48;;;;;;;1.00;1.00;;;10.10;99.90;;;;;;5006192;28;20213;-92
2021/01/29 06:28:56;;;;;;;0.80;0.80;;;10.10;99.90;;;;;;5013634;28;20181;-92
2021/01/29 06:31:34;;;;;;;0.83;0.83;;;10.10;99.70;;;;;;5024970;28;20245;-92
2021/01/29 06:34:11;;;;;;;1.30;1.10;;;10.20;98.10;;;;;;4993914;28;20182;-91
2021/01/29 06:37:10;;;;;;;0.80;0.80;;;10.20;98.20;;;;;;4986950;28;20178;-92
2021/01/29 06:39:35;;;;;;;1.13;1.13;;;10.20;97.20;;;;;;4987641;28;20168;-91
2021/01/29 06:42:48;;;;;;;2.10;1.10;;;10.20;94.60;;;;;;4988827;28;20179;-91
2021/01/29 06:45:40;;;;;;;0.80;0.80;;;10.20;95.90;;;;;;5000304;28;20287;-92
2021/01/29 06:48:29;;;;;;;0.90;0.90;;;10.20;95.90;;;;;;4998094;28;20384;-91
2021/01/29 06:51:28;;;;;;;;;;;;;;;;;;;;;
2021/01/29 06:54:03;;;;;;;0.97;0.90;;;10.00;95.40;;;;;;4994840;28;20219;-92
2021/01/29 06:57:05;;;;;;;1.20;1.10;;;10.00;95.50;;;;;;4998770;28;20186;-93
2021/01/29 07:00:08;;;;;;;2.00;1.20;;;10.00;96.70;;;;;;5006619;28;20197;-92
2021/01/29 07:02:49;;;;;;;1.00;1.00;;;10.00;97.30;;;;;;5005691;28;20249;-89
2021/01/29 07:05:40;;;;;;;0.90;0.90;;;10.00;95.90;;;;;;5000396;28;20224;-91
2021/01/29 07:08:12;;;;;;;0.90;0.90;;;10.10;94.70;;;;;;5009890;28;20183;-90
2021/01/29 07:10:59;;;;;;;0.80;0.80;;;10.10;93.30;;;;;;5009031;28;20221;-91
2021/01/29 07:13:37;;;;;;;1.97;1.00;;;10.20;94.10;;;;;;5010830;28;20200;-91
2021/01/29 07:16:30;;;;;;;1.10;1.10;;;10.20;92.90;;;;;;5008602;28;20304;-90
2021/01/29 07:19:05;;;;;;;1.00;1.00;;;10.20;92.00;;;;;;5014003;28;20194;-91
2021/01/29 07:22:04;;;;;;;1.17;1.17;;;10.30;90.30;;;;;;5007734;28;20204;-92
2021/01/29 07:24:50;;;;;;;2.03;1.13;;;10.30;92.70;;;;;;5004417;28;20218;-91
2021/01/29 07:27:36;;;;;;;1.23;1.00;;;10.20;92.30;;;;;;5001888;28;20182;-91
2021/01/29 07:30:20;;;;;;;1.10;1.10;;;10.30;91.20;;;;;;5003813;28;20216;-92
2021/01/29 07:33:16;;;;;;;1.40;1.30;;;10.30;90.90;;;;;;4999626;28;20193;-92
2021/01/29 07:35:54;;;;;;;1.00;1.00;;;10.40;91.10;;;;;;5003177;28;20209;-92
2021/01/29 07:38:49;;;;;;;1.17;1.07;;;10.30;91.90;;;;;;5003278;28;20189;-92
2021/01/29 07:41:49;;;;;;;1.03;1.03;;;10.30;91.30;;;;;;5000801;28;20198;-92
2021/01/29 07:44:36;;;;;;;2.07;1.30;;;10.30;91.70;;;;;;5010493;28;20182;-91
2021/01/29 07:47:27;;;;;;;0.87;0.87;;;10.30;91.10;;;;;;5007441;28;20258;-92
2021/01/29 07:50:22;;;;;;;1.60;1.10;;;10.40;90.40;;;;;;5022739;28;20221;-92
2021/01/29 07:53:24;;;;;;;1.00;1.00;;;10.40;91.30;;;;;;5016905;28;20182;-93
2021/01/29 07:56:35;;;;;;;1.00;1.00;;;10.30;92.10;;;;;;5021769;28;20209;-91
2021/01/29 07:59:22;;;;;;;0.93;0.93;;;10.30;91.70;;;;;;5003300;28;20189;-93
2021/01/29 08:02:13;;;;;;;1.00;1.00;;;10.40;91.30;;;;;;5008134;28;20198;-93
2021/01/29 08:04:58;;;;;;;1.87;0.90;;;10.40;91.50;;;;;;5000601;28;20230;-93
2021/01/29 08:07:46;;;;;;;1.37;1.10;;;10.50;91.90;;;;;;5013847;28;20182;-92
2021/01/29 08:10:42;;;;;;;1.40;1.30;;;10.40;93.00;;;;;;5009480;28;20193;-93
2021/01/29 08:13:29;;;;;;;1.13;1.13;;;10.50;92.80;;;;;;5013258;28;20214;-93
2021/01/29 08:16:46;;;;;;;1.53;1.43;;;10.40;94.10;;;;;;5015776;28;20202;-94
2021/01/29 08:19:33;;;;;;;1.17;1.00;;;10.30;94.20;;;;;;5018253;28;20177;-93
2021/01/29 08:22:26;;;;;;;1.20;1.20;;;10.40;95.00;;;;;;5010743;28;20175;-93
2021/01/29 08:25:29;;;;;;;1.57;1.20;;;10.30;96.30;;;;;;5014268;28;20210;-93
2021/01/29 08:28:18;;;;;;;1.60;1.20;;;10.40;94.70;;;;;;5008468;28;20189;-94
2021/01/29 08:31:26;;;;;;;1.40;1.30;;;10.20;94.70;;;;;;5010260;28;20188;-93
2021/01/29 08:34:32;;;;;;;1.20;1.10;;;10.30;93.60;;;;;;5010265;28;20260;-93
2021/01/29 08:37:37;;;;;;;1.70;1.10;;;10.40;92.80;;;;;;5006683;28;20216;-93
2021/01/29 08:40:40;;;;;;;;;;;;;;;;;;;;;
2021/01/29 08:43:50;;;;;;;2.57;1.60;;;10.50;90.40;;;;;;5016708;28;20455;-93
2021/01/29 08:46:25;;;;;;;1.80;1.20;;;10.50;90.70;;;;;;4975405;28;20237;-93
2021/01/29 08:49:09;;;;;;;3.27;1.60;;;10.60;85.30;;;;;;5017599;28;20217;-93
2021/01/29 08:52:09;;;;;;;3.77;1.60;;;10.70;86.50;;;;;;5025750;28;20205;-93
2021/01/29 08:55:34;;;;;;;2.90;1.50;;;10.70;85.40;;;;;;5012909;28;20206;-93
2021/01/29 08:59:01;;;;;;;;;;;;;;;;;;;;;
2021/01/29 09:05:50;;;;;;;2.43;1.70;;;10.60;85.50;;;;;;5012873;28;20241;-93
2021/01/29 09:08:56;;;;;;;2.03;1.60;;;10.70;86.70;;;;;;5011150;28;20270;-93
2021/01/29 09:12:20;;;;;;;1.43;1.30;;;10.60;87.00;;;;;;5016551;28;20581;-94
2021/01/29 09:18:48;;;;;;;2.77;1.50;;;10.90;84.70;;;;;;4988199;28;20213;-94
2021/01/29 09:21:55;;;;;;;4.53;1.63;;;11.00;82.30;;;;;;5019532;28;20182;-93
2021/01/29 09:25:09;;;;;;;;;;;;;;;;;;;;;
2021/01/29 09:28:22;;;;;;;3.67;1.93;;;11.00;80.70;;;;;;5015368;28;20231;-94
2021/01/29 09:32:03;;;;;;;;;;;;;;;;;;;;;
2021/01/29 10:06:14;;;;;;;4.50;2.17;;;11.50;72.90;;;;;;5019853;28;20267;-92
2021/01/29 10:20:21;;;;;;;6.07;1.87;;;11.60;73.20;;;;;;4883025;29;20388;-93
2021/01/29 10:26:23;;;;;;;5.57;2.17;;;11.70;72.40;;;;;;5003563;23;20265;-86
2021/01/29 10:29:20;;;;;;;5.20;2.17;;;11.50;73.80;;;;;;4995424;28;20190;-85
2021/01/29 10:32:17;;;;;;;5.70;3.47;;;11.50;73.70;;;;;;4998226;28;20189;-87
2021/01/29 10:34:54;;;;;;;5.40;2.93;;;11.50;73.70;;;;;;4993200;28;20174;-86
2021/01/29 10:37:37;;;;;;;5.73;2.47;;;11.50;74.00;;;;;;5007557;28;20233;-86
2021/01/29 10:40:21;;;;;;;2.53;2.17;;;11.70;70.20;;;;;;5006584;28;20186;-86
2021/01/29 10:42:58;;;;;;;3.83;1.93;;;11.70;69.50;;;;;;5001319;28;20252;-87
2021/01/29 10:45:55;;;;;;;4.13;2.27;;;11.70;68.60;;;;;;5002708;28;20218;-86
2021/01/29 10:48:48;;;;;;;6.13;2.50;;;11.70;69.50;;;;;;4999852;28;20229;-86
2021/01/29 10:51:26;;;;;;;3.67;1.90;;;11.60;70.30;;;;;;4999969;28;20186;-86
2021/01/29 10:54:03;;;;;;;4.87;2.60;;;11.60;70.30;;;;;;5005331;28;20186;-87
2021/01/29 10:56:53;;;;;;;7.67;2.53;;;11.50;72.80;;;;;;4996114;28;20186;-86
2021/01/29 10:59:42;;;;;;;4.53;2.60;;;11.40;72.30;;;;;;4991571;28;20256;-86
2021/01/29 11:02:13;;;;;;;6.63;2.20;;;11.40;74.20;;;;;;4991491;28;20206;-86
2021/01/29 11:04:47;;;;;;;6.80;2.53;;;11.30;75.90;;;;;;5001540;28;20201;-87
2021/01/29 11:07:23;;;;;;;7.20;2.33;;;11.40;73.90;;;;;;5000258;28;20836;-87
2021/01/29 11:10:04;;;;;;;5.40;2.83;;;11.30;76.60;;;;;;4997145;28;20182;-86
2021/01/29 11:12:55;;;;;;;5.80;2.40;;;11.20;75.80;;;;;;4999045;28;20182;-86
2021/01/29 11:15:24;;;;;;;6.50;2.60;;;11.20;75.60;;;;;;4991438;28;20224;-87
2021/01/29 11:18:13;;;;;;;4.00;2.07;;;11.10;77.90;;;;;;4991706;28;20239;-86
2021/01/29 11:20:41;;;;;;;4.20;2.00;;;11.10;76.10;;;;;;4996675;28;20189;-86
2021/01/29 11:23:12;;;;;;;3.93;1.93;;;11.40;74.80;;;;;;4998340;28;20189;-87
2021/01/29 11:25:42;;;;;;;6.07;2.10;;;11.70;72.50;;;;;;4999661;28;20213;-86
2021/01/29 11:28:45;;;;;;;3.63;2.03;;;12.00;70.40;;;;;;5015957;28;20581;-87
2021/01/29 11:31:31;;;;;;;8.30;2.70;;;12.00;70.10;;;;;;5007618;28;20678;-87
2021/01/29 11:33:58;;;;;;;6.90;2.20;;;11.90;70.30;;;;;;4992692;28;20202;-87
2021/01/29 11:36:52;;;;;;;4.23;2.20;;;11.90;70.20;;;;;;4995227;28;20190;-87
2021/01/29 11:39:48;;;;;;;3.50;1.93;;;12.10;69.00;;;;;;5001197;28;20214;-87
2021/01/29 11:42:52;;;;;;;5.20;2.90;;;12.40;66.80;;;;;;4994841;28;20214;-87
2021/01/29 11:45:21;;;;;;;5.07;2.40;;;12.10;69.20;;;;;;4993872;28;20229;-87
2021/01/29 11:48:08;;;;;;;7.13;2.50;;;12.10;68.20;;;;;;4999075;28;20209;-87
2021/01/29 11:50:38;;;;;;;5.30;2.00;;;12.10;65.70;;;;;;5001984;28;20191;-87
2021/01/29 11:53:32;;;;;;;4.40;2.10;;;12.10;66.10;;;;;;5002929;28;20232;-86
2021/01/29 11:56:15;;;;;;;6.10;2.40;;;12.10;65.80;;;;;;5004786;28;20182;-87
2021/01/29 11:59:08;;;;;;;4.90;2.10;;;11.90;67.90;;;;;;5000980;28;20210;-86
2021/01/29 12:01:43;;;;;;;5.80;2.37;;;11.90;66.80;;;;;;5009465;28;20198;-87
2021/01/29 12:04:43;;;;;;;4.27;2.17;;;12.00;67.70;;;;;;5005024;28;20553;-86
2021/01/29 12:07:23;;;;;;;6.53;2.53;;;11.80;66.80;;;;;;5026217;28;20218;-87
2021/01/29 12:10:08;;;;;;;6.17;2.33;;;11.70;70.20;;;;;;4995869;28;20238;-86
2021/01/29 12:13:17;;;;;;;6.70;2.63;;;11.50;74.20;;;;;;4999030;28;20238;-86
2021/01/29 12:15:48;;;;;;;5.90;2.17;;;11.40;76.60;;;;;;5015125;28;20189;-86
2021/01/29 12:18:16;;;;;;;5.67;2.33;;;10.90;80.60;;;;;;5014017;28;20264;-86
2021/01/29 12:20:43;;;;;;;6.77;2.20;;;10.70;85.40;;;;;;5011099;28;20226;-87
2021/01/29 12:23:24;;;;;;;3.83;2.43;;;10.40;88.10;;;;;;4996618;28;20677;-87
2021/01/29 12:26:02;;;;;;;3.00;2.13;;;10.30;90.00;;;;;;5001342;28;20642;-86
2021/01/29 12:28:48;;;;;;;5.60;2.23;;;10.30;90.40;;;;;;4990273;28;20551;-87
2021/01/29 12:31:17;;;;;;;4.80;2.20;;;10.10;91.80;;;;;;4991593;28;20182;-87
2021/01/29 12:33:55;;;;;;;6.13;2.50;;;10.60;91.20;;;;;;4986577;28;20194;-86
2021/01/29 12:36:25;;;;;;;4.63;2.10;;;10.90;87.90;;;;;;4987719;28;20193;-86
2021/01/29 12:38:58;;;;;;;5.67;2.27;;;11.20;88.00;;;;;;4992825;28;20260;-87
2021/01/29 12:41:29;;;;;;;4.90;2.13;;;11.10;86.00;;;;;;5010036;28;20195;-87
2021/01/29 12:44:03;;;;;;;6.40;2.00;;;11.10;83.80;;;;;;4996795;28;20190;-87
2021/01/29 12:46:34;;;;;;;7.73;1.93;;;10.80;84.90;;;;;;4993800;28;20202;-87
2021/01/29 12:49:18;;;;;;;5.53;1.90;;;10.80;82.70;;;;;;4992766;28;20269;-87
2021/01/29 12:52:01;;;;;;;4.00;1.67;;;10.90;83.60;;;;;;4995186;28;20182;-87
2021/01/29 12:54:56;;;;;;;5.13;2.03;;;11.00;84.40;;;;;;4993557;28;20179;-85
2021/01/29 12:57:25;;;;;;;4.43;2.10;;;11.00;83.60;;;;;;4990355;28;20202;-87
2021/01/29 13:00:17;;;;;;;3.20;2.00;;;11.00;85.00;;;;;;4995808;28;20191;-86
2021/01/29 13:03:04;;;;;;;4.20;2.07;;;10.80;85.90;;;;;;4997742;28;20186;-87
2021/01/29 13:05:57;;;;;;;4.23;2.07;;;10.90;85.90;;;;;;4995345;28;20212;-87
2021/01/29 13:08:41;;;;;;;3.97;2.00;;;10.80;85.70;;;;;;4996197;28;20245;-87
2021/01/29 13:11:33;;;;;;;4.57;2.20;;;10.80;85.10;;;;;;4996934;28;20190;-86
2021/01/29 13:14:23;;;;;;;4.00;1.80;;;10.70;86.30;;;;;;4990668;28;20264;-87
2021/01/29 13:17:21;;;;;;;4.50;2.47;;;10.60;86.50;;;;;;4994164;28;20325;-87
2021/01/29 13:19:56;;;;;;;3.33;1.90;;;10.50;87.60;;;;;;4995193;28;20236;-87
2021/01/29 13:22:39;;;;;;;3.13;2.23;;;10.40;89.30;;;;;;4997024;28;20217;-86
2021/01/29 13:25:28;;;;;;;2.70;1.80;;;10.30;90.60;;;;;;4992961;28;20218;-87
2021/01/29 13:28:07;;;;;;;3.27;1.70;;;10.20;89.20;;;;;;4990675;28;20207;-87
2021/01/29 13:30:38;;;;;;;3.67;2.00;;;10.20;89.80;;;;;;4987692;28;20218;-87
2021/01/29 13:33:19;;;;;;;5.87;2.10;;;10.00;92.10;;;;;;4993739;28;20198;-87
2021/01/29 13:35:49;;;;;;;6.03;2.03;;;9.90;94.10;;;;;;4991916;28;20277;-88
2021/01/29 13:38:37;;;;;;;5.80;2.27;;;9.90;94.10;;;;;;4994455;28;20258;-88
2021/01/29 13:41:20;;;;;;;2.83;2.00;;;9.80;95.20;;;;;;4994280;28;20191;-87
2021/01/29 13:43:47;;;;;;;3.57;1.60;;;9.80;93.10;;;;;;4999567;28;20189;-88
2021/01/29 13:46:31;;;;;;;3.57;2.30;;;9.80;92.90;;;;;;4991778;28;20251;-87
2021/01/29 13:49:26;;;;;;;4.27;1.90;;;9.80;93.90;;;;;;4990844;28;20183;-88
2021/01/29 13:51:52;;;;;;;3.77;2.10;;;9.70;96.00;;;;;;4993008;28;20187;-88
2021/01/29 13:54:36;;;;;;;3.80;1.80;;;9.80;94.70;;;;;;5002389;28;20242;-88
2021/01/29 13:57:23;;;;;;;3.43;2.00;;;9.80;92.80;;;;;;4981720;28;20685;-88
2021/01/29 14:00:10;;;;;;;5.97;2.10;;;9.80;94.70;;;;;;4991702;28;20183;-88
2021/01/29 14:03:02;;;;;;;4.57;2.20;;;9.80;94.30;;;;;;4994646;28;20183;-88
2021/01/29 14:05:29;;;;;;;6.47;2.33;;;9.70;93.60;;;;;;4998906;28;20206;-88
2021/01/29 14:07:59;;;;;;;5.27;2.67;;;9.60;96.70;;;;;;5002617;28;20281;-88
2021/01/29 14:10:30;;;;;;;5.03;2.23;;;9.60;97.70;;;;;;5010438;28;20534;-88
2021/01/29 14:13:14;;;;;;;4.40;2.10;;;9.50;98.10;;;;;;4996712;28;20195;-88
2021/01/29 14:16:02;;;;;;;5.57;2.33;;;9.40;97.80;;;;;;4995409;28;20190;-89
2021/01/29 14:18:52;;;;;;;4.70;1.90;;;9.30;97.00;;;;;;4993640;28;20233;-87
2021/01/29 14:21:25;;;;;;;5.97;2.30;;;9.20;96.80;;;;;;4994851;28;20342;-89
2021/01/29 14:24:05;;;;;;;6.67;2.10;;;9.20;96.10;;;;;;4993318;28;20269;-87
2021/01/29 14:27:06;;;;;;;5.87;2.13;;;9.20;97.00;;;;;;4993423;28;20202;-88
2021/01/29 14:30:19;;;;;;;5.40;2.73;;;9.20;99.40;;;;;;4994119;28;20202;-88
2021/01/29 14:33:12;;;;;;;4.53;1.90;;;9.20;99.90;;;;;;4989195;28;20314;-88
2021/01/29 14:36:00;;;;;;;6.57;2.73;;;9.30;95.70;;;;;;4995521;28;20218;-88
2021/01/29 14:38:50;;;;;;;5.90;2.43;;;9.30;98.90;;;;;;4995176;28;20209;-88
2021/01/29 14:41:38;;;;;;;7.97;2.37;;;9.40;96.00;;;;;;4996174;28;20281;-88
2021/01/29 14:44:15;;;;;;;2.57;1.50;;;9.40;92.90;;;;;;4994586;28;20212;-88
2021/01/29 14:46:59;;;;;;;5.20;2.57;;;9.40;90.00;;;;;;4989386;28;20253;-88
2021/01/29 14:49:48;;;;;;;4.33;2.03;;;9.40;90.30;;;;;;4994123;28;20229;-88
2021/01/29 14:52:16;;;;;;;2.43;1.60;;;9.30;89.50;;;;;;4995246;28;20219;-89
2021/01/29 14:55:10;;;;;;;2.93;1.70;;;9.30;90.30;;;;;;4993739;28;20261;-88
2021/01/29 14:57:39;;;;;;;3.23;1.60;;;9.20;92.00;;;;;;4990153;28;20214;-88
2021/01/29 15:00:13;;;;;;;4.20;1.90;;;9.30;93.00;;;;;;4993963;28;20268;-88
2021/01/29 15:02:55;;;;;;;4.20;1.87;;;9.30;93.40;;;;;;4999394;28;20181;-88
2021/01/29 15:05:43;;;;;;;5.47;2.60;;;9.30;93.90;;;;;;5000692;28;20236;-89
2021/01/29 15:08:24;;;;;;;4.00;2.07;;;9.30;94.40;;;;;;4995545;28;20211;-88
2021/01/29 15:11:10;;;;;;;7.03;2.53;;;9.30;95.10;;;;;;5017900;28;20278;-88